2D5

Oakes Municipal Airport

Oakes, North Dakota, USA
METAR K2D5 132255Z AUTO 14005KT 10SM OVC065 M02/M05 A3031 RMK AO2 PWINO
Observed Flight Rules
Nov-13 @ 22:55 UTC (17 minutes ago) Visual Flight Rules
Wind Visibility Clouds
140° at 5 knots 10 miles
  • Overcast at 6,500' AGL
Temperatures Readings
Current -2°C / 28°F
Dewpoint -5°C / 23°F
Humidity 80%
Altimeter 30.31" Hg
Pressure 1026 hPa
Elevation 407
METAR K2D5 132255Z AUTO 14005KT 10SM OVC065 M02/M05 A3031 RMK AO2 PWINO
Observed Flight Rules
Nov-13 @ 22:55 UTC
(17 minutes ago)
VFR
Wind Visibility
140° at 5 knots 10 miles
Clouds
  • Overcast at 6,500' AGL
Temperature Dewpoint
-2°C / 28°F -5°C / 23°F
Humidity Altimeter Pressure
80% 30.31" Hg 1026 hPa